Time;durP1;ratioP1;P1;durP2;ratioP2;P2;SDS_P1;SDS_P2;PMS_P1;PMS_P2;Temp;Humidity;BMP_temperature;BMP_pressure;BME280_temperature;BME280_humidity;BME280_pressure;Samples;Min_cycle;Max_cycle;Signal;HPM_P1;HPM_P2
2022/03/31 00:00:20;;;;;;;56.58;29.92;;;6.90;99.90;;;;;;4999113;28;20390;-76
2022/03/31 00:02:47;;;;;;;57.70;28.08;;;6.90;99.90;;;;;;5000786;28;20713;-77
2022/03/31 00:05:14;;;;;;;61.53;29.98;;;6.90;99.90;;;;;;5004490;28;20239;-77
2022/03/31 00:07:49;;;;;;;53.45;27.58;;;6.90;99.90;;;;;;5005209;28;20236;-77
2022/03/31 00:10:20;;;;;;;50.85;28.55;;;6.90;99.90;;;;;;5007670;28;20246;-77
2022/03/31 00:12:47;;;;;;;59.58;28.88;;;6.90;99.90;;;;;;5006422;28;20249;-79
2022/03/31 00:15:14;;;;;;;56.10;27.70;;;6.80;99.90;;;;;;5001727;28;20291;-76
2022/03/31 00:17:43;;;;;;;56.88;30.45;;;6.90;99.90;;;;;;5002146;28;20303;-76
2022/03/31 00:20:11;;;;;;;52.00;27.98;;;7.00;99.90;;;;;;5004011;28;20259;-76
2022/03/31 00:22:38;;;;;;;58.10;29.15;;;7.00;99.90;;;;;;5003407;28;20681;-76
2022/03/31 00:25:07;;;;;;;51.00;27.25;;;6.90;99.90;;;;;;5002538;28;20589;-77
2022/03/31 00:27:35;;;;;;;58.42;29.75;;;6.90;99.90;;;;;;5003248;28;20295;-77
2022/03/31 00:30:02;;;;;;;55.70;28.63;;;6.90;99.90;;;;;;5003251;28;20224;-78
2022/03/31 00:32:28;;;;;;;54.15;28.92;;;6.90;99.90;;;;;;5003028;28;20296;-75
2022/03/31 00:34:57;;;;;;;53.88;28.77;;;6.90;99.90;;;;;;5016997;28;20247;-76
2022/03/31 00:37:24;;;;;;;53.17;28.02;;;6.90;99.90;;;;;;5008506;28;20239;-77
2022/03/31 00:39:50;;;;;;;51.60;29.05;;;6.90;99.90;;;;;;5013325;28;20313;-74
2022/03/31 00:42:17;;;;;;;46.47;27.95;;;6.90;99.90;;;;;;5014067;28;20624;-77
2022/03/31 00:44:44;;;;;;;45.95;27.42;;;6.90;99.90;;;;;;4998813;28;20228;-76
2022/03/31 00:47:12;;;;;;;45.88;26.55;;;6.90;99.90;;;;;;4998363;28;20208;-77
2022/03/31 00:49:39;;;;;;;46.17;26.45;;;6.90;99.90;;;;;;4998099;28;20608;-78
2022/03/31 00:52:08;;;;;;;46.25;26.17;;;7.00;99.90;;;;;;5002452;28;20303;-76
2022/03/31 00:54:35;;;;;;;48.28;23.45;;;7.00;99.90;;;;;;5010632;28;20247;-75
2022/03/31 00:57:04;;;;;;;39.60;24.20;;;7.00;99.90;;;;;;5013119;28;20248;-76
2022/03/31 00:59:33;;;;;;;46.10;25.50;;;7.00;99.90;;;;;;5013969;28;20291;-76
2022/03/31 01:02:01;;;;;;;40.50;25.08;;;7.00;99.90;;;;;;5009352;28;20209;-76
2022/03/31 01:04:29;;;;;;;39.13;23.05;;;7.00;99.90;;;;;;4999929;28;20232;-78
2022/03/31 01:06:56;;;;;;;38.42;23.40;;;7.00;99.90;;;;;;5000170;28;20231;-77
2022/03/31 01:09:25;;;;;;;36.75;22.30;;;7.00;99.90;;;;;;4998269;28;20252;-78
2022/03/31 01:11:52;;;;;;;35.55;23.27;;;7.00;99.90;;;;;;5001466;28;20227;-76
2022/03/31 01:14:20;;;;;;;33.53;22.20;;;7.00;99.90;;;;;;5010572;28;20239;-75
2022/03/31 01:16:46;;;;;;;40.35;23.20;;;7.00;99.90;;;;;;5008894;28;20216;-77
2022/03/31 01:19:14;;;;;;;35.72;21.90;;;6.90;99.90;;;;;;4998273;28;20295;-76
2022/03/31 01:21:42;;;;;;;34.65;21.40;;;7.00;99.90;;;;;;4997406;28;20215;-77
2022/03/31 01:24:13;;;;;;;35.03;21.73;;;6.90;99.90;;;;;;4997094;28;20727;-77
2022/03/31 01:26:41;;;;;;;30.40;21.17;;;6.90;99.90;;;;;;4997190;28;20209;-78
2022/03/31 01:29:09;;;;;;;33.22;20.88;;;6.90;99.90;;;;;;4998172;28;20204;-77
2022/03/31 01:31:37;;;;;;;32.83;19.52;;;6.80;99.90;;;;;;4997414;28;20235;-78
2022/03/31 01:34:05;;;;;;;30.92;19.15;;;6.80;99.90;;;;;;4996250;28;20216;-77
2022/03/31 01:36:32;;;;;;;27.88;18.75;;;6.80;99.90;;;;;;4996465;28;20262;-75
2022/03/31 01:38:59;;;;;;;27.98;17.73;;;6.80;99.90;;;;;;4996389;28;20278;-76
2022/03/31 01:41:28;;;;;;;29.65;18.70;;;6.90;99.40;;;;;;4996792;28;20231;-76
2022/03/31 01:43:55;;;;;;;25.95;17.55;;;6.90;98.70;;;;;;4996420;28;20240;-78
2022/03/31 01:46:22;;;;;;;24.08;15.93;;;6.80;97.50;;;;;;4996892;28;20243;-77
2022/03/31 01:48:49;;;;;;;22.52;15.75;;;6.80;96.20;;;;;;4996497;28;20208;-77
2022/03/31 01:51:16;;;;;;;25.10;15.65;;;6.80;95.60;;;;;;4996364;28;20281;-77
2022/03/31 01:53:43;;;;;;;23.55;14.57;;;6.80;95.10;;;;;;4996870;28;20216;-77
2022/03/31 01:56:10;;;;;;;19.77;14.57;;;6.70;94.80;;;;;;5000983;28;20205;-77
2022/03/31 01:58:38;;;;;;;19.63;14.82;;;6.70;94.30;;;;;;4997840;28;20584;-77
2022/03/31 02:01:06;;;;;;;18.05;12.93;;;6.60;94.00;;;;;;4996542;28;20275;-77
2022/03/31 02:03:34;;;;;;;21.40;14.15;;;6.60;93.70;;;;;;4997597;28;20218;-77
2022/03/31 02:06:01;;;;;;;19.08;13.93;;;6.60;92.90;;;;;;4998202;28;20215;-77
2022/03/31 02:08:29;;;;;;;20.33;13.93;;;6.50;92.10;;;;;;4998674;28;20212;-76
2022/03/31 02:10:56;;;;;;;19.08;14.38;;;6.50;92.10;;;;;;4996961;28;20716;-77
2022/03/31 02:13:23;;;;;;;18.88;13.40;;;6.50;91.70;;;;;;4998117;28;20208;-76
2022/03/31 02:15:52;;;;;;;20.05;13.50;;;6.50;91.40;;;;;;4998928;28;20641;-77
2022/03/31 02:18:19;;;;;;;19.73;13.95;;;6.50;91.20;;;;;;4999257;28;20224;-77
2022/03/31 02:20:46;;;;;;;19.30;13.73;;;6.50;91.10;;;;;;4998903;28;20228;-77
2022/03/31 02:23:13;;;;;;;19.95;14.60;;;6.40;91.30;;;;;;4999582;28;20208;-77
2022/03/31 02:25:40;;;;;;;18.60;14.25;;;6.30;92.40;;;;;;4999358;28;20228;-77
2022/03/31 02:28:07;;;;;;;17.73;13.55;;;6.40;92.20;;;;;;5000189;28;20235;-76
2022/03/31 02:30:34;;;;;;;22.63;15.25;;;6.30;92.40;;;;;;5000388;28;20315;-77
2022/03/31 02:33:03;;;;;;;20.02;14.82;;;6.30;92.40;;;;;;5004992;28;20212;-76
2022/03/31 02:35:31;;;;;;;22.33;15.50;;;6.30;92.70;;;;;;5004496;28;20205;-76
2022/03/31 02:37:58;;;;;;;23.27;16.02;;;6.30;92.90;;;;;;5003130;28;20212;-76
2022/03/31 02:40:25;;;;;;;23.13;16.05;;;6.30;93.40;;;;;;5006881;28;20343;-76
2022/03/31 02:42:52;;;;;;;20.20;15.43;;;6.30;93.80;;;;;;5002139;28;20219;-76
2022/03/31 02:45:20;;;;;;;25.92;17.60;;;6.20;93.90;;;;;;5002825;28;20224;-76
2022/03/31 02:47:47;;;;;;;21.48;15.85;;;6.20;93.90;;;;;;5002738;28;20636;-75
2022/03/31 02:50:17;;;;;;;23.15;17.08;;;6.20;94.20;;;;;;5004861;28;20232;-77
2022/03/31 02:55:30;;;;;;;22.98;16.42;;;6.10;94.70;;;;;;5011908;28;20192;-76
2022/03/31 02:58:00;;;;;;;21.75;16.50;;;6.10;95.10;;;;;;5013046;28;20216;-76
2022/03/31 03:00:27;;;;;;;22.20;16.60;;;6.10;94.70;;;;;;5011545;28;20264;-76
2022/03/31 03:02:54;;;;;;;25.08;16.77;;;6.00;94.30;;;;;;5013502;28;20256;-76
2022/03/31 03:05:23;;;;;;;23.08;15.90;;;6.00;94.20;;;;;;5016243;28;20227;-77
2022/03/31 03:07:50;;;;;;;23.90;15.85;;;6.00;94.30;;;;;;5016138;28;20196;-76
2022/03/31 03:10:17;;;;;;;23.48;15.88;;;5.90;94.10;;;;;;5184005;23;20279;-81
2022/03/31 03:12:44;;;;;;;22.92;17.08;;;5.90;93.70;;;;;;5015853;28;20196;-79
2022/03/31 03:15:12;;;;;;;23.98;15.73;;;5.80;93.30;;;;;;5016797;28;20193;-80
2022/03/31 03:17:42;;;;;;;20.25;15.07;;;5.80;93.30;;;;;;5017866;28;20209;-80
2022/03/31 03:20:13;;;;;;;24.23;16.35;;;5.80;91.90;;;;;;5016521;28;20240;-78
2022/03/31 03:22:43;;;;;;;24.45;16.98;;;5.70;91.80;;;;;;5005629;28;20299;-79
2022/03/31 03:25:11;;;;;;;23.50;16.05;;;5.70;91.80;;;;;;5003657;28;20229;-79
2022/03/31 03:27:38;;;;;;;23.33;17.02;;;5.60;91.80;;;;;;5021104;28;20189;-79
2022/03/31 03:30:06;;;;;;;23.08;15.57;;;5.60;91.70;;;;;;5021503;28;20209;-80
2022/03/31 03:32:34;;;;;;;20.83;15.20;;;5.60;91.40;;;;;;5020953;28;20208;-78
2022/03/31 03:35:00;;;;;;;21.60;15.35;;;5.50;90.90;;;;;;5017388;28;20216;-81
2022/03/31 03:37:27;;;;;;;25.65;17.42;;;5.50;91.50;;;;;;5017126;28;20193;-78
2022/03/31 03:39:56;;;;;;;25.17;16.77;;;5.50;91.10;;;;;;5016181;28;20232;-76
2022/03/31 03:42:23;;;;;;;21.02;14.75;;;5.40;91.70;;;;;;5015444;28;20212;-77
2022/03/31 03:44:49;;;;;;;23.52;15.63;;;5.50;92.00;;;;;;5004101;28;20224;-78
2022/03/31 03:47:17;;;;;;;23.73;15.85;;;5.40;93.10;;;;;;5000173;28;20615;-78
2022/03/31 03:49:44;;;;;;;30.52;16.92;;;5.30;93.50;;;;;;4999902;28;20268;-78
2022/03/31 03:52:11;;;;;;;23.90;15.63;;;5.30;94.10;;;;;;5000711;28;20212;-77
2022/03/31 03:54:39;;;;;;;25.02;17.25;;;5.20;94.90;;;;;;5000941;28;20295;-78
2022/03/31 03:57:07;;;;;;;26.80;17.48;;;5.20;95.30;;;;;;5000599;28;20276;-77
2022/03/31 03:59:37;;;;;;;25.70;17.48;;;5.20;96.00;;;;;;5000559;28;20319;-78
2022/03/31 04:02:05;;;;;;;25.75;16.05;;;5.10;96.40;;;;;;5000485;28;20249;-77
2022/03/31 04:04:32;;;;;;;26.92;17.00;;;5.10;97.00;;;;;;5000681;28;20215;-77
2022/03/31 04:06:59;;;;;;;27.55;18.10;;;5.10;97.30;;;;;;5001558;28;20212;-76
2022/03/31 04:09:26;;;;;;;28.48;17.38;;;5.10;97.60;;;;;;5010314;28;20244;-77
2022/03/31 04:11:53;;;;;;;25.73;17.25;;;5.20;98.20;;;;;;5016936;28;20213;-76
2022/03/31 04:14:21;;;;;;;28.83;17.88;;;5.20;98.70;;;;;;5017841;28;20204;-77
2022/03/31 04:16:49;;;;;;;26.45;16.67;;;5.20;98.00;;;;;;5017002;28;20216;-77
2022/03/31 04:19:16;;;;;;;27.02;17.55;;;5.10;98.70;;;;;;5014600;28;20213;-78
2022/03/31 04:21:43;;;;;;;31.55;18.52;;;5.20;98.80;;;;;;5015697;28;20211;-77
2022/03/31 04:24:10;;;;;;;26.48;17.45;;;5.10;99.10;;;;;;5016753;28;20228;-78
2022/03/31 04:26:37;;;;;;;25.58;17.50;;;5.10;99.70;;;;;;5016988;28;20232;-77
2022/03/31 04:29:08;;;;;;;28.90;17.00;;;5.10;99.60;;;;;;5015440;28;20260;-78
2022/03/31 04:31:37;;;;;;;26.50;17.98;;;5.10;99.90;;;;;;5011403;28;20645;-77
2022/03/31 04:34:04;;;;;;;27.58;17.90;;;5.00;99.80;;;;;;5000933;28;20578;-78
2022/03/31 04:36:31;;;;;;;29.60;18.17;;;5.10;99.90;;;;;;5000369;28;20288;-77
2022/03/31 04:38:58;;;;;;;27.33;17.92;;;5.10;99.90;;;;;;4999579;28;20353;-76
2022/03/31 04:41:25;;;;;;;28.27;17.83;;;5.10;99.90;;;;;;5000476;28;20228;-77
2022/03/31 04:43:53;;;;;;;30.88;17.90;;;5.10;99.90;;;;;;5001348;28;20240;-77
2022/03/31 04:46:20;;;;;;;31.33;18.50;;;5.20;99.90;;;;;;5001029;28;20224;-77
2022/03/31 04:48:49;;;;;;;27.67;17.50;;;5.20;99.90;;;;;;5002830;28;20212;-77
2022/03/31 04:51:22;;;;;;;26.50;17.55;;;5.20;99.90;;;;;;5001579;28;20237;-77
2022/03/31 04:53:49;;;;;;;34.00;17.80;;;5.20;99.90;;;;;;4998892;28;20711;-77
2022/03/31 04:56:21;;;;;;;29.13;18.50;;;5.20;99.90;;;;;;4997468;28;20295;-76
2022/03/31 04:58:48;;;;;;;27.02;17.58;;;5.20;99.90;;;;;;4999666;28;20219;-77
2022/03/31 05:01:16;;;;;;;30.13;18.25;;;5.20;99.90;;;;;;5008832;28;20292;-76
2022/03/31 05:06:41;;;;;;;36.22;18.67;;;5.10;99.90;;;;;;5006968;28;20208;-78
2022/03/31 05:12:11;;;;;;;28.50;18.50;;;5.10;99.90;;;;;;5611732;23;20600;-77
2022/03/31 05:14:38;;;;;;;32.50;20.20;;;5.10;99.90;;;;;;5000747;28;20215;-77
2022/03/31 05:17:07;;;;;;;29.63;19.50;;;5.10;99.90;;;;;;4998948;28;20578;-76
2022/03/31 05:19:34;;;;;;;29.20;20.02;;;5.00;99.90;;;;;;4998946;28;20286;-77
2022/03/31 05:22:03;;;;;;;33.28;19.25;;;5.10;99.90;;;;;;4999745;28;20215;-77
2022/03/31 05:24:30;;;;;;;31.15;19.20;;;5.10;99.90;;;;;;5001320;28;20223;-76
2022/03/31 05:26:57;;;;;;;32.47;19.42;;;5.10;99.90;;;;;;5000259;28;20235;-77
2022/03/31 05:29:24;;;;;;;33.45;19.35;;;5.00;99.90;;;;;;5003867;28;20296;-78
2022/03/31 05:31:51;;;;;;;36.83;19.80;;;5.00;99.90;;;;;;5001390;28;20201;-78
2022/03/31 05:34:21;;;;;;;34.95;20.00;;;5.00;99.90;;;;;;4998038;28;20215;-78
2022/03/31 05:36:48;;;;;;;32.20;19.38;;;5.10;99.90;;;;;;5000307;28;20204;-80
2022/03/31 05:39:17;;;;;;;36.97;19.88;;;5.00;99.90;;;;;;5001770;28;20216;-78
2022/03/31 05:41:44;;;;;;;34.17;19.00;;;5.10;99.90;;;;;;5001308;28;20216;-77
2022/03/31 05:44:11;;;;;;;36.78;20.25;;;5.00;99.90;;;;;;4997751;28;20219;-77
2022/03/31 05:46:38;;;;;;;32.05;20.20;;;5.00;99.90;;;;;;4997442;28;20239;-77
2022/03/31 05:49:05;;;;;;;31.45;19.15;;;5.10;99.90;;;;;;4996914;28;20216;-77
2022/03/31 05:51:32;;;;;;;31.67;18.80;;;5.00;99.90;;;;;;4997526;28;20215;-78
2022/03/31 05:54:01;;;;;;;33.35;19.70;;;5.00;99.90;;;;;;4997678;28;20231;-76
2022/03/31 05:56:29;;;;;;;33.35;19.08;;;5.10;99.90;;;;;;4997851;28;20208;-77
2022/03/31 05:58:56;;;;;;;38.42;21.38;;;5.10;99.90;;;;;;4997544;28;20239;-77
2022/03/31 06:01:23;;;;;;;39.67;20.42;;;5.10;99.90;;;;;;5008766;28;20236;-77
2022/03/31 06:03:50;;;;;;;34.30;20.25;;;5.00;99.90;;;;;;5006976;28;20216;-76
2022/03/31 06:06:16;;;;;;;35.90;20.25;;;5.10;99.90;;;;;;5005583;28;20228;-77
2022/03/31 06:08:43;;;;;;;35.58;19.98;;;5.00;99.90;;;;;;5001911;28;20247;-76
2022/03/31 06:11:10;;;;;;;35.28;21.00;;;5.10;99.90;;;;;;4998799;28;20292;-76
2022/03/31 06:13:38;;;;;;;36.67;19.83;;;5.10;99.90;;;;;;5005518;28;20197;-77
2022/03/31 06:16:05;;;;;;;39.35;21.25;;;5.00;99.90;;;;;;5008397;28;20236;-76
2022/03/31 06:18:32;;;;;;;38.35;20.92;;;5.00;99.90;;;;;;5005987;28;20200;-75
2022/03/31 06:20:59;;;;;;;40.90;20.55;;;5.00;99.90;;;;;;5001744;28;20230;-76
2022/03/31 06:23:27;;;;;;;42.50;20.58;;;5.00;99.90;;;;;;5005741;28;20235;-75
2022/03/31 06:25:54;;;;;;;41.70;20.83;;;4.90;99.90;;;;;;5008320;28;20224;-75
2022/03/31 06:28:21;;;;;;;41.38;21.92;;;4.90;99.90;;;;;;5009199;28;20201;-75
2022/03/31 06:30:50;;;;;;;35.13;21.55;;;5.00;99.90;;;;;;5008590;28;20249;-76
2022/03/31 06:33:17;;;;;;;42.33;21.50;;;4.90;99.90;;;;;;5009866;28;20218;-77
2022/03/31 06:35:44;;;;;;;41.40;21.25;;;4.90;99.90;;;;;;5007236;28;20204;-76
2022/03/31 06:38:12;;;;;;;40.90;22.00;;;5.00;99.90;;;;;;5006224;28;20255;-75
2022/03/31 06:40:41;;;;;;;40.03;21.33;;;5.00;99.90;;;;;;5005025;28;20228;-76
2022/03/31 06:43:08;;;;;;;39.33;21.50;;;5.00;99.90;;;;;;5010614;28;20204;-75
2022/03/31 06:45:35;;;;;;;41.20;21.92;;;5.00;99.90;;;;;;5009030;28;20224;-77
2022/03/31 06:48:06;;;;;;;44.63;21.45;;;5.00;99.90;;;;;;5009293;28;20209;-77
2022/03/31 06:50:35;;;;;;;41.05;21.90;;;5.00;99.90;;;;;;5017726;28;20224;-76
2022/03/31 06:53:02;;;;;;;47.60;22.20;;;5.00;99.90;;;;;;4995372;28;20209;-76
2022/03/31 06:55:29;;;;;;;45.13;23.13;;;5.00;99.90;;;;;;4992839;28;20200;-74
2022/03/31 06:57:56;;;;;;;42.92;23.00;;;5.00;99.90;;;;;;4995029;28;20227;-76
2022/03/31 07:00:24;;;;;;;42.78;22.60;;;5.00;99.90;;;;;;4995132;28;20319;-75
2022/03/31 07:02:51;;;;;;;43.03;21.83;;;5.00;99.90;;;;;;5000943;28;20216;-76
2022/03/31 07:05:19;;;;;;;45.40;23.50;;;5.00;99.90;;;;;;4999327;28;20211;-75
2022/03/31 07:07:46;;;;;;;45.38;23.23;;;5.00;99.90;;;;;;5000064;28;20291;-74
2022/03/31 07:10:13;;;;;;;45.70;22.55;;;5.00;99.90;;;;;;5008197;28;20230;-75
2022/03/31 07:12:41;;;;;;;40.00;20.63;;;5.00;99.90;;;;;;5007913;28;20256;-77
2022/03/31 07:15:09;;;;;;;47.60;22.80;;;5.00;99.90;;;;;;5001915;28;20316;-78
2022/03/31 07:17:36;;;;;;;41.22;22.67;;;5.00;99.90;;;;;;5002643;28;20236;-75
2022/03/31 07:20:04;;;;;;;43.70;21.77;;;5.10;99.90;;;;;;5006553;28;20638;-75
2022/03/31 07:22:33;;;;;;;42.45;21.85;;;5.10;99.90;;;;;;5011875;28;20671;-75
2022/03/31 07:25:00;;;;;;;51.05;24.83;;;5.20;99.90;;;;;;4999838;28;20566;-75
2022/03/31 07:27:27;;;;;;;37.05;20.60;;;5.20;99.90;;;;;;5005888;28;20224;-74
2022/03/31 07:29:54;;;;;;;39.85;21.65;;;5.20;99.90;;;;;;4998875;28;20329;-75
2022/03/31 07:32:21;;;;;;;41.88;23.05;;;5.20;99.90;;;;;;4998669;28;20615;-76
2022/03/31 07:34:48;;;;;;;42.95;23.08;;;5.30;99.90;;;;;;4999230;28;20236;-76
2022/03/31 07:37:15;;;;;;;44.25;22.25;;;5.40;99.90;;;;;;5015198;28;20212;-75
2022/03/31 07:39:45;;;;;;;41.20;22.75;;;5.60;99.90;;;;;;5008394;28;20245;-75
2022/03/31 07:42:12;;;;;;;42.40;21.02;;;5.60;99.90;;;;;;5006876;28;20196;-75
2022/03/31 07:44:39;;;;;;;38.53;21.00;;;5.70;99.90;;;;;;4998415;28;20275;-76
2022/03/31 07:47:06;;;;;;;34.75;21.15;;;5.90;99.90;;;;;;5006013;28;20569;-77
2022/03/31 07:49:33;;;;;;;40.38;23.05;;;5.90;99.90;;;;;;4997711;28;20221;-75
2022/03/31 07:52:00;;;;;;;36.85;20.98;;;5.90;99.90;;;;;;4997813;28;20228;-75
2022/03/31 07:54:27;;;;;;;37.33;21.38;;;5.70;99.90;;;;;;4998771;28;20271;-75
2022/03/31 07:56:56;;;;;;;35.85;21.33;;;5.80;99.90;;;;;;5006288;28;20204;-76
2022/03/31 07:59:25;;;;;;;38.97;21.75;;;5.80;99.90;;;;;;5016475;28;20290;-74
2022/03/31 08:01:53;;;;;;;36.08;20.77;;;5.90;99.90;;;;;;5013033;28;20200;-76
2022/03/31 08:04:20;;;;;;;38.08;20.60;;;5.90;99.90;;;;;;5023555;28;20208;-77
2022/03/31 08:06:47;;;;;;;34.88;20.17;;;5.90;99.90;;;;;;5018527;28;20224;-77
2022/03/31 08:09:17;;;;;;;36.08;19.65;;;6.00;99.90;;;;;;5017805;28;20211;-76
2022/03/31 08:11:45;;;;;;;36.95;21.40;;;6.00;99.90;;;;;;5013169;28;20220;-75
2022/03/31 08:14:16;;;;;;;33.47;19.35;;;6.00;99.90;;;;;;5009812;28;20204;-76
2022/03/31 08:16:45;;;;;;;33.35;20.63;;;6.10;99.90;;;;;;5005716;28;20456;-75
2022/03/31 08:19:11;;;;;;;35.75;20.67;;;6.00;99.90;;;;;;5009567;28;20595;-79
2022/03/31 08:21:38;;;;;;;31.08;18.58;;;6.00;99.90;;;;;;5007031;28;20235;-77
2022/03/31 08:24:06;;;;;;;35.10;20.67;;;6.20;99.90;;;;;;5002427;28;20208;-74
2022/03/31 08:26:33;;;;;;;31.52;20.60;;;6.30;99.90;;;;;;4999723;28;20628;-75
2022/03/31 08:29:00;;;;;;;31.83;19.70;;;6.40;99.90;;;;;;4999656;28;20208;-76
2022/03/31 08:31:28;;;;;;;32.88;18.48;;;6.60;99.90;;;;;;5000217;28;20232;-76
2022/03/31 08:33:55;;;;;;;29.90;20.23;;;6.60;99.90;;;;;;4999711;28;20211;-77
2022/03/31 08:36:22;;;;;;;31.80;20.75;;;6.60;99.90;;;;;;5001127;28;20695;-77
2022/03/31 08:38:50;;;;;;;31.58;19.02;;;6.40;99.80;;;;;;5008873;28;20228;-75
2022/03/31 08:41:19;;;;;;;34.80;19.70;;;6.50;99.90;;;;;;5010218;28;20283;-76
2022/03/31 08:43:46;;;;;;;29.80;18.80;;;6.40;99.80;;;;;;5009215;28;20230;-77
2022/03/31 08:46:15;;;;;;;29.33;18.35;;;6.60;99.90;;;;;;5010627;28;20221;-75
2022/03/31 08:48:44;;;;;;;31.75;19.15;;;6.80;99.90;;;;;;5006919;28;20247;-76
2022/03/31 08:51:11;;;;;;;30.52;19.48;;;6.80;97.90;;;;;;5003324;28;20254;-75
2022/03/31 08:53:38;;;;;;;26.88;18.05;;;6.70;97.00;;;;;;5004897;28;20204;-75
2022/03/31 08:56:06;;;;;;;32.20;18.60;;;6.60;96.70;;;;;;5005859;28;20259;-77
2022/03/31 08:58:40;;;;;;;31.33;18.77;;;6.80;97.60;;;;;;5007576;28;20297;-77
2022/03/31 09:01:09;;;;;;;26.88;17.50;;;7.00;97.20;;;;;;5009953;28;20243;-77
2022/03/31 09:04:07;;;;;;;24.63;16.33;;;7.20;97.20;;;;;;5010051;28;20220;-79
2022/03/31 09:20:59;;;;;;;24.55;16.58;;;7.70;91.10;;;;;;5214692;23;20235;-77
2022/03/31 09:23:28;;;;;;;21.98;15.98;;;7.60;91.10;;;;;;5011198;28;20216;-77
2022/03/31 09:26:05;;;;;;;26.35;16.75;;;7.50;89.70;;;;;;5010805;28;20208;-77
2022/03/31 09:28:33;;;;;;;21.48;14.35;;;7.60;91.60;;;;;;5011319;28;20204;-78
2022/03/31 09:31:01;;;;;;;23.88;16.23;;;7.90;89.60;;;;;;5011388;28;20264;-77
2022/03/31 09:33:34;;;;;;;24.58;15.80;;;7.60;88.40;;;;;;5011088;28;20209;-77
2022/03/31 09:36:10;;;;;;;23.50;16.17;;;7.60;90.70;;;;;;5012508;28;20591;-77
2022/03/31 09:42:55;;;;;;;20.95;14.02;;;8.10;84.30;;;;;;4954706;29;20276;-78
2022/03/31 09:46:23;;;;;;;20.35;14.85;;;8.30;78.50;;;;;;4952675;29;20214;-78
2022/03/31 09:48:52;;;;;;;19.75;14.10;;;8.00;79.80;;;;;;4930439;29;20210;-77
2022/03/31 09:51:36;;;;;;;24.20;15.18;;;7.80;79.60;;;;;;4957932;29;20237;-79
2022/03/31 09:54:06;;;;;;;19.48;14.20;;;8.00;79.80;;;;;;4957659;29;20202;-78
2022/03/31 09:56:40;;;;;;;22.60;13.90;;;8.10;76.40;;;;;;4957240;29;20693;-77
2022/03/31 10:45:54;;;;;;;19.20;12.90;;;8.20;75.10;;;;;;6045220;23;20190;-79
2022/03/31 10:48:24;;;;;;;19.15;12.70;;;7.80;75.40;;;;;;5032057;28;20235;-81
2022/03/31 10:51:02;;;;;;;19.55;12.90;;;7.90;76.80;;;;;;5008274;28;20239;-80
2022/03/31 10:53:30;;;;;;;18.02;12.73;;;8.10;75.60;;;;;;5000329;28;20215;-78
2022/03/31 11:38:12;;;;;;;16.08;12.02;;;8.70;65.50;;;;;;5472702;23;20729;-76
2022/03/31 11:40:41;;;;;;;15.40;11.38;;;9.00;65.70;;;;;;5015753;28;20204;-77
2022/03/31 11:43:09;;;;;;;17.13;12.10;;;9.00;65.00;;;;;;4998501;28;20287;-77
2022/03/31 11:45:38;;;;;;;17.48;12.15;;;9.10;64.30;;;;;;5001639;28;20744;-77
2022/03/31 11:48:07;;;;;;;17.33;12.02;;;9.00;63.70;;;;;;4987073;28;20229;-76
2022/03/31 11:53:18;;;;;;;16.77;11.48;;;9.00;64.70;;;;;;5013001;28;20574;-79
2022/03/31 11:55:56;;;;;;;14.93;10.25;;;9.30;63.00;;;;;;5019717;28;20215;-80
2022/03/31 11:58:24;;;;;;;14.02;10.05;;;9.40;61.90;;;;;;5023270;28;20243;-80
2022/03/31 12:00:52;;;;;;;13.95;10.90;;;9.70;59.40;;;;;;5020569;28;20286;-79
2022/03/31 12:03:19;;;;;;;13.80;10.48;;;9.60;61.20;;;;;;5022829;28;20212;-82
2022/03/31 12:05:56;;;;;;;16.10;10.60;;;9.50;61.40;;;;;;5029503;28;20200;-80
2022/03/31 12:08:25;;;;;;;15.95;10.90;;;9.80;59.50;;;;;;5016323;28;20224;-80
2022/03/31 12:10:52;;;;;;;14.02;10.68;;;9.20;61.90;;;;;;5004362;28;20229;-80
2022/03/31 12:13:20;;;;;;;15.80;10.20;;;9.40;60.60;;;;;;4999181;28;20221;-79
2022/03/31 12:15:47;;;;;;;14.60;10.93;;;9.50;59.60;;;;;;5013634;28;20209;-81
2022/03/31 12:18:17;;;;;;;16.30;11.18;;;9.40;60.60;;;;;;5017145;28;20204;-80
2022/03/31 12:20:46;;;;;;;16.85;10.80;;;9.50;59.20;;;;;;5011779;28;20232;-80
2022/03/31 12:23:22;;;;;;;15.25;11.18;;;9.60;59.30;;;;;;5013944;28;20208;-80
2022/03/31 12:25:50;;;;;;;15.10;10.90;;;9.70;58.80;;;;;;5018976;28;20207;-80
2022/03/31 12:28:21;;;;;;;13.60;10.48;;;9.90;59.60;;;;;;5018957;28;20230;-79
2022/03/31 12:30:49;;;;;;;14.38;9.30;;;9.90;57.40;;;;;;5031215;28;20225;-80
2022/03/31 12:33:22;;;;;;;15.00;10.52;;;9.80;59.20;;;;;;5028731;28;20200;-80
2022/03/31 12:36:08;;;;;;;14.63;11.50;;;9.90;57.70;;;;;;5034572;28;20243;-80
2022/03/31 12:38:41;;;;;;;15.48;10.77;;;9.80;59.00;;;;;;5033608;28;20191;-79
2022/03/31 12:41:29;;;;;;;12.82;9.98;;;9.70;59.40;;;;;;5019969;28;20204;-79
2022/03/31 12:43:58;;;;;;;13.45;10.18;;;9.60;59.30;;;;;;5017627;28;20223;-80
2022/03/31 12:46:28;;;;;;;13.57;10.38;;;9.60;60.90;;;;;;5029022;28;20242;-78
2022/03/31 12:48:57;;;;;;;13.07;11.02;;;10.00;57.70;;;;;;5012864;28;20303;-78
2022/03/31 12:51:25;;;;;;;12.63;10.38;;;9.70;58.90;;;;;;5011603;28;20292;-79
2022/03/31 12:53:52;;;;;;;14.18;10.80;;;9.50;58.80;;;;;;5000714;28;20271;-81
2022/03/31 12:56:28;;;;;;;17.23;11.15;;;9.30;59.10;;;;;;4997691;28;20208;-80
2022/03/31 12:58:57;;;;;;;16.10;10.70;;;9.20;60.60;;;;;;4999073;28;20228;-80
2022/03/31 13:01:26;;;;;;;14.18;11.15;;;9.40;59.80;;;;;;5002208;28;20306;-80
2022/03/31 13:03:54;;;;;;;12.82;9.55;;;9.30;59.10;;;;;;5002115;28;20232;-80
2022/03/31 13:06:21;;;;;;;13.15;10.40;;;9.50;59.20;;;;;;5010504;28;20681;-79
2022/03/31 13:08:48;;;;;;;16.08;11.00;;;9.50;58.60;;;;;;5011533;28;20327;-81
2022/03/31 13:11:15;;;;;;;13.07;10.10;;;9.40;57.60;;;;;;5015237;28;20284;-79
2022/03/31 13:13:44;;;;;;;14.38;9.88;;;9.20;59.00;;;;;;5010333;28;20216;-78
2022/03/31 13:16:13;;;;;;;15.07;10.38;;;9.20;59.00;;;;;;5008841;28;20576;-79
2022/03/31 13:18:40;;;;;;;14.55;9.63;;;9.40;58.30;;;;;;5022385;28;20207;-79
2022/03/31 13:21:08;;;;;;;14.60;9.43;;;9.50;57.70;;;;;;5027635;28;20232;-80
2022/03/31 13:23:35;;;;;;;12.23;9.60;;;9.60;56.90;;;;;;5021032;28;20211;-78
2022/03/31 13:26:03;;;;;;;13.10;9.40;;;9.70;57.20;;;;;;5018834;28;20302;-80
2022/03/31 13:28:30;;;;;;;14.10;9.80;;;9.70;57.80;;;;;;5003580;28;20220;-79
2022/03/31 13:30:58;;;;;;;12.90;9.00;;;9.70;56.30;;;;;;5010070;28;20242;-78
2022/03/31 13:33:25;;;;;;;13.20;9.88;;;9.40;57.00;;;;;;5013749;28;20220;-77
2022/03/31 13:35:52;;;;;;;15.77;11.55;;;9.40;57.50;;;;;;5014955;28;20212;-77
2022/03/31 13:38:19;;;;;;;12.50;9.45;;;9.30;58.30;;;;;;5014662;28;20220;-78
2022/03/31 13:40:46;;;;;;;14.55;11.10;;;9.30;57.70;;;;;;5016638;28;20208;-80
2022/03/31 13:43:13;;;;;;;13.00;10.52;;;9.30;59.00;;;;;;5014708;28;20220;-77
2022/03/31 13:45:41;;;;;;;13.23;10.70;;;9.40;59.20;;;;;;5016504;28;20197;-78
2022/03/31 13:48:09;;;;;;;14.45;11.48;;;9.30;59.10;;;;;;5016417;28;20287;-78
2022/03/31 13:50:39;;;;;;;15.95;11.80;;;9.30;60.60;;;;;;5015029;28;20679;-77
2022/03/31 13:55:51;;;;;;;15.82;10.98;;;9.30;62.60;;;;;;5000969;28;20215;-77
2022/03/31 14:01:18;;;;;;;17.52;10.43;;;9.00;63.90;;;;;;4999977;28;20282;-77
2022/03/31 14:03:48;;;;;;;13.07;9.68;;;9.10;64.00;;;;;;5000935;28;20208;-78
2022/03/31 14:06:18;;;;;;;15.98;11.65;;;9.00;65.50;;;;;;4998216;28;20245;-78
2022/03/31 14:08:45;;;;;;;15.43;11.85;;;9.00;67.70;;;;;;4997030;28;20247;-79
2022/03/31 14:11:12;;;;;;;15.43;11.57;;;8.90;69.00;;;;;;4997222;28;20221;-77
2022/03/31 14:13:40;;;;;;;18.42;13.32;;;8.70;70.40;;;;;;4997696;28;20232;-76
2022/03/31 14:16:08;;;;;;;30.85;22.20;;;8.70;71.60;;;;;;4999078;28;20303;-78
2022/03/31 14:18:38;;;;;;;24.33;17.70;;;8.60;72.30;;;;;;5013527;28;20223;-79
2022/03/31 14:21:07;;;;;;;22.20;16.75;;;8.40;73.90;;;;;;4982184;28;20249;-79
2022/03/31 14:23:35;;;;;;;27.23;22.27;;;8.50;76.00;;;;;;5020413;28;20704;-80
2022/03/31 14:26:03;;;;;;;22.48;17.67;;;8.40;76.20;;;;;;5021426;28;20311;-79
2022/03/31 14:28:31;;;;;;;24.70;20.60;;;8.40;78.30;;;;;;5018149;28;20273;-80
2022/03/31 14:30:59;;;;;;;22.88;17.13;;;8.30;78.10;;;;;;5019989;28;20239;-80
2022/03/31 14:33:26;;;;;;;23.05;17.63;;;8.30;80.00;;;;;;5020744;28;20208;-79
2022/03/31 14:35:54;;;;;;;25.08;17.85;;;8.20;80.00;;;;;;5025721;28;20214;-78
2022/03/31 14:45:23;;;;;;;24.08;16.63;;;8.00;79.80;;;;;;4921306;29;20286;-79
2022/03/31 14:47:50;;;;;;;23.77;16.15;;;8.00;81.90;;;;;;4959750;28;20320;-79
2022/03/31 14:50:17;;;;;;;20.98;15.93;;;8.00;82.30;;;;;;4958327;29;20220;-81
2022/03/31 14:52:45;;;;;;;21.10;15.75;;;8.10;82.00;;;;;;4958848;28;20365;-80
2022/03/31 14:55:11;;;;;;;23.55;16.33;;;8.00;80.60;;;;;;4960681;28;20268;-81